Time;durP1;ratioP1;P1;durP2;ratioP2;P2;SDS_P1;SDS_P2;PMS_P1;PMS_P2;Temp;Humidity;BMP_temperature;BMP_pressure;BME280_temperature;BME280_humidity;BME280_pressure;Samples;Min_cycle;Max_cycle;Signal;HPM_P1;HPM_P2
2024/04/01 00:01:04;;;;;;;46.40;7.90;;;;;;;18.81;49.45;99270.53;5131830;27;20039;-59
2024/04/01 00:03:31;;;;;;;43.25;8.13;;;;;;;18.71;50.06;99272.56;5131565;27;20043;-59
2024/04/01 00:05:59;;;;;;;43.00;8.25;;;;;;;18.79;50.24;99277.13;5131646;27;20065;-60
2024/04/01 00:08:26;;;;;;;48.08;7.93;;;;;;;18.75;50.01;99273.09;5131467;27;20047;-60
2024/04/01 00:10:53;;;;;;;33.28;7.72;;;;;;;18.76;50.04;99281.03;5131353;27;20046;-60
2024/04/01 00:13:21;;;;;;;39.50;7.47;;;;;;;18.78;50.11;99273.59;5130987;27;20078;-59
2024/04/01 00:15:48;;;;;;;38.65;7.72;;;;;;;18.78;50.41;99261.94;5131340;27;20104;-60
2024/04/01 00:18:15;;;;;;;49.55;8.05;;;;;;;18.77;50.47;99266.50;5131480;27;20100;-60
2024/04/01 00:20:42;;;;;;;39.92;7.38;;;;;;;18.72;51.10;99274.28;5131225;27;20061;-59
2024/04/01 00:23:08;;;;;;;40.33;7.45;;;;;;;18.69;50.92;99252.16;5131329;27;20157;-60
2024/04/01 00:25:35;;;;;;;35.35;7.65;;;;;;;18.58;51.53;99253.28;5131047;27;20054;-60
2024/04/01 00:28:03;;;;;;;53.53;7.82;;;;;;;18.64;51.35;99235.59;5131025;27;20108;-59
2024/04/01 00:30:32;;;;;;;47.13;8.30;;;;;;;18.65;51.29;99232.75;5131309;27;20054;-60
2024/04/01 00:32:58;;;;;;;45.88;8.23;;;;;;;18.62;51.69;99232.19;5131118;27;20047;-59
2024/04/01 00:35:25;;;;;;;44.20;8.05;;;;;;;18.56;52.04;99218.34;5131131;27;20062;-59
2024/04/01 00:37:52;;;;;;;43.50;7.32;;;;;;;18.60;51.62;99232.34;5131013;27;20433;-59
2024/04/01 00:40:19;;;;;;;43.65;7.78;;;;;;;18.58;51.86;99231.69;5130853;27;20043;-59
2024/04/01 00:42:45;;;;;;;40.55;7.60;;;;;;;18.53;52.09;99223.25;5130996;27;20120;-60
2024/04/01 00:45:14;;;;;;;49.70;7.97;;;;;;;18.52;52.10;99230.50;5127635;27;20396;-58
2024/04/01 00:47:42;;;;;;;37.25;7.85;;;;;;;18.54;51.99;99233.03;5110385;28;20043;-59
2024/04/01 00:50:09;;;;;;;47.25;8.50;;;;;;;18.56;51.93;99236.41;5110284;28;20040;-60
2024/04/01 00:52:36;;;;;;;43.97;7.75;;;;;;;18.55;52.14;99226.63;5110153;28;20055;-59
2024/04/01 00:55:04;;;;;;;45.50;7.97;;;;;;;18.57;52.02;99230.00;5110165;28;20040;-59
2024/04/01 00:57:31;;;;;;;43.13;8.30;;;;;;;18.37;52.59;99231.34;5110478;28;20043;-59
2024/04/01 00:59:58;;;;;;;48.08;8.50;;;;;;;18.39;52.94;99223.91;5110320;28;20508;-60
2024/04/01 01:02:26;;;;;;;37.33;8.00;;;;;;;18.28;53.02;99228.63;5110316;28;20070;-59
2024/04/01 01:04:55;;;;;;;41.90;7.68;;;;;;;18.39;52.86;99234.72;5110169;28;20139;-59
2024/04/01 01:07:23;;;;;;;51.72;8.75;;;;;;;18.33;53.08;99230.81;5109818;28;20048;-59
2024/04/01 01:09:51;;;;;;;46.47;8.43;;;;;;;18.31;53.19;99228.28;5109975;28;20123;-59
2024/04/01 01:12:18;;;;;;;44.95;8.80;;;;;;;18.29;53.18;99222.22;5110145;28;20131;-59
2024/04/01 01:14:45;;;;;;;47.58;8.65;;;;;;;18.23;53.27;99225.56;5109937;28;20100;-59
2024/04/01 01:17:11;;;;;;;48.78;7.55;;;;;;;18.31;53.22;99222.88;5109876;28;20511;-60
2024/04/01 01:19:38;;;;;;;38.15;8.05;;;;;;;18.28;53.14;99223.22;5109821;28;20054;-60
2024/04/01 01:22:06;;;;;;;52.45;8.13;;;;;;;18.35;53.11;99226.09;5109620;28;20580;-59
2024/04/01 01:24:35;;;;;;;43.15;8.27;;;;;;;18.37;52.63;99217.84;5113461;27;20402;-58
2024/04/01 01:27:01;;;;;;;46.67;7.93;;;;;;;18.41;52.48;99208.38;5134752;27;20047;-59
2024/04/01 01:29:29;;;;;;;53.05;8.38;;;;;;;18.36;52.93;99211.59;5134913;27;20130;-59
2024/04/01 01:32:00;;;;;;;48.53;8.40;;;;;;;18.41;52.72;99211.06;5134623;27;20479;-59
2024/04/01 01:34:28;;;;;;;54.03;8.75;;;;;;;18.40;52.42;99212.09;5134592;27;20510;-59
2024/04/01 01:36:55;;;;;;;45.55;8.77;;;;;;;18.48;52.34;99212.09;5134797;27;20043;-59
2024/04/01 01:39:23;;;;;;;46.90;8.93;;;;;;;18.53;52.21;99215.16;5134542;27;20042;-58
2024/04/01 01:41:50;;;;;;;45.17;8.25;;;;;;;18.48;52.41;99214.81;5134463;27;20144;-60
2024/04/01 01:44:18;;;;;;;46.05;8.70;;;;;;;18.53;52.08;99213.31;5134241;27;20643;-59
2024/04/01 01:46:45;;;;;;;53.08;8.88;;;;;;;18.46;52.08;99212.28;5134405;27;20051;-59
2024/04/01 01:49:12;;;;;;;44.03;8.10;;;;;;;18.00;53.58;99209.16;5134170;27;20081;-59
2024/04/01 01:51:40;;;;;;;51.53;8.77;;;;;;;18.02;53.60;99214.38;5134159;27;20130;-59
2024/04/01 01:54:07;;;;;;;48.92;9.20;;;;;;;18.13;53.46;99213.22;5134475;27;20137;-59
2024/04/01 01:56:34;;;;;;;59.55;8.65;;;;;;;18.06;53.36;99212.22;5134284;27;20203;-59
2024/04/01 01:59:02;;;;;;;60.95;9.00;;;;;;;18.11;53.28;99212.56;5134112;27;20432;-60
2024/04/01 02:01:29;;;;;;;58.53;8.43;;;;;;;18.15;52.96;99206.69;5134003;27;20057;-60
2024/04/01 02:03:56;;;;;;;53.88;8.75;;;;;;;18.21;53.06;99200.59;5134000;27;20470;-59
2024/04/01 02:06:22;;;;;;;42.72;8.25;;;;;;;18.25;52.45;99204.66;5134106;27;20115;-60
2024/04/01 02:08:49;;;;;;;47.83;8.95;;;;;;;18.29;52.23;99206.00;5133992;27;20071;-58
2024/04/01 02:11:16;;;;;;;62.85;9.18;;;;;;;18.26;52.19;99211.75;5134017;27;20043;-59
2024/04/01 02:13:43;;;;;;;52.50;8.77;;;;;;;18.18;52.27;99209.03;5133869;27;20043;-60
2024/04/01 02:16:11;;;;;;;50.97;9.52;;;;;;;18.29;51.75;99200.63;5133675;27;20055;-60
2024/04/01 02:18:38;;;;;;;52.63;9.07;;;;;;;18.19;52.58;99193.69;5133618;27;20054;-60
2024/04/01 02:21:05;;;;;;;60.03;9.35;;;;;;;18.24;52.53;99202.97;5133511;27;20055;-59
2024/04/01 02:23:32;;;;;;;52.05;9.15;;;;;;;18.19;52.56;99202.63;5133562;27;20088;-59
2024/04/01 02:25:59;;;;;;;41.92;7.68;;;;;;;18.02;53.16;99199.03;5133828;27;20103;-59
2024/04/01 02:28:27;;;;;;;49.47;9.20;;;;;;;18.12;52.63;99207.00;5133617;27;20047;-59
2024/04/01 02:30:53;;;;;;;43.60;8.05;;;;;;;18.12;52.79;99208.84;5133407;27;20066;-58
2024/04/01 02:33:22;;;;;;;48.85;8.88;;;;;;;18.11;52.95;99209.84;5133367;27;20054;-60
2024/04/01 02:35:48;;;;;;;42.63;9.00;;;;;;;18.07;52.83;99209.34;5132602;27;20429;-59
2024/04/01 02:38:15;;;;;;;52.05;9.20;;;;;;;18.08;52.77;99205.66;5133321;27;20055;-59
2024/04/01 02:40:41;;;;;;;54.22;8.70;;;;;;;17.94;53.10;99209.81;5133321;27;20043;-59
2024/04/01 02:43:09;;;;;;;50.88;8.48;;;;;;;17.93;52.66;99216.22;5133280;27;20063;-58
2024/04/01 02:45:35;;;;;;;58.97;9.93;;;;;;;18.00;52.91;99211.84;5133112;27;20103;-60
2024/04/01 02:48:03;;;;;;;48.58;8.02;;;;;;;17.87;52.84;99202.56;5132957;27;20078;-60
2024/04/01 02:50:31;;;;;;;53.70;9.18;;;;;;;17.90;52.51;99210.31;5133353;27;20043;-59
2024/04/01 02:52:59;;;;;;;53.45;8.82;;;;;;;17.92;52.62;99202.91;5133129;27;20043;-60
2024/04/01 02:55:25;;;;;;;47.67;8.93;;;;;;;17.86;52.79;99200.88;5133008;27;20054;-56
2024/04/01 02:57:52;;;;;;;47.65;8.80;;;;;;;17.89;52.62;99197.84;5133034;27;20515;-61
2024/04/01 03:00:19;;;;;;;54.83;8.30;;;;;;;17.78;53.01;99188.19;5132860;27;20057;-59
2024/04/01 03:02:47;;;;;;;51.75;9.25;;;;;;;17.78;53.50;99198.16;5132978;27;20456;-57
2024/04/01 03:05:14;;;;;;;51.20;9.30;;;;;;;17.80;52.97;99188.03;5133041;27;20100;-56
2024/04/01 03:07:43;;;;;;;53.00;9.32;;;;;;;17.79;53.32;99184.50;5132605;27;20533;-58
2024/04/01 03:10:11;;;;;;;52.00;10.27;;;;;;;17.85;52.43;99181.13;5132732;27;20057;-56
2024/04/01 03:12:38;;;;;;;54.90;9.55;;;;;;;17.86;52.77;99165.81;5132799;27;20059;-59
2024/04/01 03:15:05;;;;;;;44.25;9.60;;;;;;;17.85;52.12;99162.22;5132348;27;20112;-58
2024/04/01 03:17:33;;;;;;;52.63;9.25;;;;;;;17.93;52.02;99166.81;5132939;27;20055;-59
2024/04/01 03:19:59;;;;;;;51.70;8.93;;;;;;;17.89;52.27;99163.63;5132705;27;20082;-57
2024/04/01 03:22:27;;;;;;;55.35;9.65;;;;;;;17.85;52.22;99167.63;5132490;27;20054;-60
2024/04/01 03:24:54;;;;;;;44.63;8.52;;;;;;;17.84;52.66;99176.75;5132409;27;20050;-59
2024/04/01 03:27:22;;;;;;;46.30;9.15;;;;;;;17.95;52.43;99172.88;5132208;27;20090;-59
2024/04/01 03:29:48;;;;;;;56.15;8.90;;;;;;;17.81;52.48;99174.38;5132169;27;20104;-59
2024/04/01 03:32:16;;;;;;;46.13;9.05;;;;;;;17.81;52.53;99166.28;5132250;27;20503;-58
2024/04/01 03:34:46;;;;;;;62.50;9.65;;;;;;;17.73;53.09;99164.41;5132504;27;20050;-60
2024/04/01 03:37:13;;;;;;;50.38;9.48;;;;;;;17.76;52.82;99162.38;5132307;27;20060;-59
2024/04/01 03:39:43;;;;;;;43.92;8.80;;;;;;;17.72;52.94;99153.78;5132095;27;20047;-59
2024/04/01 03:42:12;;;;;;;53.53;10.00;;;;;;;17.70;52.70;99163.91;5132031;27;20047;-58
2024/04/01 03:44:39;;;;;;;59.60;10.10;;;;;;;17.64;53.13;99159.13;5132419;27;20104;-60
2024/04/01 03:47:06;;;;;;;49.00;9.70;;;;;;;17.64;53.17;99159.97;5131938;27;20047;-59
2024/04/01 03:49:33;;;;;;;45.25;9.60;;;;;;;17.58;53.21;99151.72;5131854;27;20047;-59
2024/04/01 03:51:59;;;;;;;51.78;10.35;;;;;;;17.52;53.66;99142.41;5132080;27;20523;-60
2024/04/01 03:54:27;;;;;;;50.90;10.30;;;;;;;17.45;53.54;99144.06;5131919;27;20054;-59
2024/04/01 03:56:53;;;;;;;55.67;8.73;;;;;;;17.36;53.85;99139.63;5131911;27;20049;-58
2024/04/01 03:59:21;;;;;;;56.28;9.05;;;;;;;17.40;53.62;99138.31;5132070;27;20039;-58
2024/04/01 04:01:47;;;;;;;52.15;9.63;;;;;;;17.49;53.04;99145.44;5131963;27;20059;-59
2024/04/01 04:04:15;;;;;;;48.40;9.48;;;;;;;17.56;53.13;99145.59;5132080;27;20082;-58
2024/04/01 04:06:41;;;;;;;46.28;9.82;;;;;;;17.59;52.74;99148.84;5131865;27;20043;-59
2024/04/01 04:09:15;;;;;;;46.00;9.32;;;;;;;17.47;52.96;99155.53;5131469;27;20047;-58
2024/04/01 04:11:43;;;;;;;55.70;10.80;;;;;;;17.53;53.00;99146.78;5131460;27;20525;-58
2024/04/01 04:14:10;;;;;;;46.25;8.38;;;;;;;17.48;53.17;99148.31;5131624;27;20476;-60
2024/04/01 04:16:38;;;;;;;50.10;9.32;;;;;;;17.45;52.55;99138.66;5131230;27;20044;-60
2024/04/01 04:19:05;;;;;;;43.20;9.48;;;;;;;17.38;53.04;99132.25;5131344;27;20344;-60
2024/04/01 04:21:32;;;;;;;45.28;9.82;;;;;;;17.36;52.76;99137.78;5131317;27;20128;-59
2024/04/01 04:23:58;;;;;;;58.10;9.55;;;;;;;17.41;52.34;99148.09;5131085;27;20047;-60
2024/04/01 04:26:26;;;;;;;51.15;9.93;;;;;;;17.34;52.17;99152.44;5131253;27;20047;-58
2024/04/01 04:28:55;;;;;;;51.75;9.40;;;;;;;17.34;52.25;99145.19;5131351;27;20051;-59
2024/04/01 04:31:22;;;;;;;54.33;9.70;;;;;;;17.35;52.12;99144.19;5131086;27;20082;-59
2024/04/01 04:33:50;;;;;;;39.10;9.23;;;;;;;17.40;51.43;99149.09;5131031;27;20097;-59
2024/04/01 04:36:17;;;;;;;57.33;9.43;;;;;;;17.44;51.53;99142.38;5130990;27;20444;-59
2024/04/01 04:38:44;;;;;;;43.05;9.50;;;;;;;17.38;51.50;99143.03;5131092;27;20143;-60
2024/04/01 04:41:11;;;;;;;53.67;8.48;;;;;;;17.41;51.14;99142.72;5131401;27;20046;-58
2024/04/01 04:43:37;;;;;;;44.17;9.05;;;;;;;17.48;51.17;99149.13;5131164;27;20047;-60
2024/04/01 04:46:05;;;;;;;58.67;9.55;;;;;;;17.42;50.89;99155.16;5130920;27;20126;-58
2024/04/01 04:48:31;;;;;;;44.60;8.55;;;;;;;17.46;50.68;99156.53;5130874;27;20483;-60
2024/04/01 04:50:59;;;;;;;47.92;10.05;;;;;;;17.48;50.18;99164.47;5130875;27;20042;-58
2024/04/01 04:53:26;;;;;;;45.63;8.32;;;;;;;17.59;49.67;99162.31;5130747;27;20047;-58
2024/04/01 04:55:53;;;;;;;48.97;8.57;;;;;;;17.63;49.58;99158.28;5131043;27;20147;-58
2024/04/01 04:58:20;;;;;;;48.05;8.63;;;;;;;17.68;49.87;99158.66;5130622;27;20467;-59
2024/04/01 05:00:49;;;;;;;42.00;8.95;;;;;;;17.67;49.51;99170.44;5131195;27;20039;-60
2024/04/01 05:03:15;;;;;;;46.95;8.77;;;;;;;17.67;49.64;99165.06;5130611;27;20552;-58
2024/04/01 05:05:42;;;;;;;43.30;8.23;;;;;;;17.77;49.40;99166.78;5130362;27;20043;-59
2024/04/01 05:08:10;;;;;;;39.42;8.13;;;;;;;17.88;48.34;99166.47;5130633;27;20108;-58
2024/04/01 05:10:37;;;;;;;50.15;8.73;;;;;;;17.92;48.73;99170.53;5130431;27;20066;-59
2024/04/01 05:13:04;;;;;;;48.33;8.40;;;;;;;17.94;48.49;99173.91;5130616;27;20043;-59
2024/04/01 05:15:31;;;;;;;45.47;8.07;;;;;;;17.98;48.57;99172.56;5130503;27;20133;-58
2024/04/01 05:17:58;;;;;;;38.80;8.18;;;;;;;18.01;48.50;99169.53;5130608;27;20054;-59
2024/04/01 05:20:25;;;;;;;50.65;8.88;;;;;;;18.04;48.32;99171.88;5130455;27;20055;-59
2024/04/01 05:22:51;;;;;;;45.20;9.05;;;;;;;18.08;48.20;99165.16;5130403;28;20047;-60
2024/04/01 05:25:20;;;;;;;47.65;8.27;;;;;;;18.06;48.13;99159.09;5130876;28;20051;-59
2024/04/01 05:27:47;;;;;;;40.50;8.23;;;;;;;18.16;48.11;99159.78;5130263;27;20070;-58
2024/04/01 05:30:15;;;;;;;41.30;7.53;;;;;;;18.21;47.70;99157.41;5130656;27;20092;-59
2024/04/01 05:32:42;;;;;;;34.05;8.13;;;;;;;18.20;47.53;99160.28;5130132;27;20082;-61
2024/04/01 05:35:11;;;;;;;34.47;7.03;;;;;;;18.39;47.05;99159.13;5130174;27;20096;-59
2024/04/01 05:37:38;;;;;;;38.00;7.75;;;;;;;18.41;47.71;99159.78;5130483;28;20043;-59
2024/04/01 05:40:06;;;;;;;37.75;7.60;;;;;;;18.51;47.24;99164.00;5130367;27;20047;-59
2024/04/01 05:42:34;;;;;;;45.00;8.35;;;;;;;18.59;46.88;99160.44;5130303;28;20059;-59
2024/04/01 05:45:01;;;;;;;33.70;7.35;;;;;;;18.62;46.88;99173.59;5130197;27;20058;-58
2024/04/01 05:47:27;;;;;;;35.80;7.80;;;;;;;18.68;47.13;99178.38;5130208;27;20045;-60
2024/04/01 05:49:55;;;;;;;32.83;7.18;;;;;;;18.67;46.56;99174.00;5130061;28;20764;-59
2024/04/01 05:52:22;;;;;;;41.78;8.27;;;;;;;18.77;46.14;99174.66;5130063;27;20058;-60
2024/04/01 05:54:49;;;;;;;37.50;7.88;;;;;;;18.88;46.06;99171.59;5130111;28;20043;-62
2024/04/01 05:57:15;;;;;;;39.15;7.47;;;;;;;18.86;45.90;99179.03;5130183;27;20068;-60
2024/04/01 05:59:46;;;;;;;41.72;7.75;;;;;;;18.93;45.31;99183.75;5130240;28;20074;-58
2024/04/01 06:02:12;;;;;;;37.30;7.30;;;;;;;18.95;45.75;99185.28;5130249;27;20385;-60
2024/04/01 06:04:39;;;;;;;40.03;7.70;;;;;;;19.01;45.51;99178.31;5129997;27;20039;-59
2024/04/01 06:07:05;;;;;;;47.90;8.50;;;;;;;18.96;44.95;99170.75;5130388;27;20086;-60
2024/04/01 06:09:34;;;;;;;37.50;8.10;;;;;;;19.08;44.67;99171.22;5130449;27;20043;-59
2024/04/01 06:12:00;;;;;;;37.42;7.18;;;;;;;19.05;44.86;99167.00;5133826;27;20039;-59
2024/04/01 06:14:27;;;;;;;40.25;7.78;;;;;;;19.09;44.82;99162.09;5134125;27;20051;-57
2024/04/01 06:16:56;;;;;;;44.53;7.50;;;;;;;19.20;44.75;99150.91;5133987;27;20095;-58
2024/04/01 06:19:23;;;;;;;46.90;8.32;;;;;;;19.12;45.09;99161.75;5134127;27;20070;-59
2024/04/01 06:21:49;;;;;;;43.08;7.47;;;;;;;19.22;44.74;99166.97;5134215;27;20453;-60
2024/04/01 06:24:16;;;;;;;42.38;7.85;;;;;;;19.27;45.14;99165.41;5134570;27;20096;-60
2024/04/01 06:26:43;;;;;;;37.10;7.85;;;;;;;19.33;44.44;99175.53;5133809;27;20046;-60
2024/04/01 06:29:10;;;;;;;34.17;7.20;;;;;;;19.52;44.05;99179.69;5133767;27;20607;-59
2024/04/01 06:31:36;;;;;;;41.38;7.55;;;;;;;19.61;44.05;99177.84;5133393;27;20047;-61
2024/04/01 06:34:06;;;;;;;43.97;7.85;;;;;;;19.65;44.07;99168.34;5133533;27;20494;-60
2024/04/01 06:36:34;;;;;;;40.35;8.07;;;;;;;19.79;43.91;99186.53;5133580;27;20039;-58
2024/04/01 06:39:04;;;;;;;43.58;8.57;;;;;;;19.84;43.83;99194.97;5133347;27;20432;-56
2024/04/01 06:41:31;;;;;;;45.72;8.30;;;;;;;19.88;43.23;99179.19;5133632;27;20046;-58
2024/04/01 06:43:58;;;;;;;49.50;8.07;;;;;;;20.21;42.92;99187.97;5133062;27;20503;-60
2024/04/01 06:46:24;;;;;;;41.20;8.82;;;;;;;20.32;42.57;99178.59;5133129;27;20855;-59
2024/04/01 06:48:51;;;;;;;39.80;8.43;;;;;;;20.38;42.56;99176.00;5133183;27;20054;-59
2024/04/01 06:51:19;;;;;;;45.20;7.93;;;;;;;20.48;42.01;99173.94;5132840;27;20047;-59
2024/04/01 06:53:46;;;;;;;37.00;8.07;;;;;;;20.54;42.13;99165.06;5133346;27;20104;-58
2024/04/01 06:56:13;;;;;;;38.88;7.80;;;;;;;20.67;42.07;99158.19;5133057;27;20047;-58
2024/04/01 06:58:40;;;;;;;40.45;8.75;;;;;;;20.68;42.27;99149.03;5132810;27;20597;-58
2024/04/01 07:01:07;;;;;;;42.80;7.70;;;;;;;20.83;41.36;99131.75;5133025;27;20519;-56
2024/04/01 07:03:34;;;;;;;42.92;8.13;;;;;;;20.86;41.17;99136.00;5132929;27;20055;-61
2024/04/01 07:06:00;;;;;;;44.63;7.95;;;;;;;20.91;41.30;99133.56;5133293;27;20050;-59
2024/04/01 07:08:29;;;;;;;42.05;8.50;;;;;;;20.91;41.74;99138.13;5132614;27;20050;-59
2024/04/01 07:10:55;;;;;;;46.25;8.48;;;;;;;21.06;40.65;99125.44;5132747;27;20168;-59
2024/04/01 07:13:22;;;;;;;45.58;7.68;;;;;;;21.19;40.51;99122.91;5132518;27;20047;-59
2024/04/01 07:15:49;;;;;;;36.50;8.85;;;;;;;21.32;40.67;99125.81;5132536;27;20055;-59
2024/04/01 07:18:16;;;;;;;45.03;8.90;;;;;;;21.25;40.50;99129.47;5132869;27;20089;-59
2024/04/01 07:20:42;;;;;;;46.22;8.85;;;;;;;21.30;40.76;99122.47;5132379;27;20043;-56
2024/04/01 07:23:09;;;;;;;42.53;8.13;;;;;;;21.54;40.34;99132.16;5132270;27;20104;-59
2024/04/01 07:25:37;;;;;;;45.92;8.65;;;;;;;21.65;39.89;99142.53;5132425;27;20449;-58
2024/04/01 07:28:05;;;;;;;56.42;9.38;;;;;;;21.65;39.95;99141.69;5132215;27;20550;-58
2024/04/01 07:30:31;;;;;;;49.53;8.82;;;;;;;21.56;40.17;99137.41;5132251;27;20051;-56
2024/04/01 07:32:59;;;;;;;46.38;9.00;;;;;;;21.47;40.52;99138.53;5132530;27;20381;-59
2024/04/01 07:35:28;;;;;;;45.60;8.57;;;;;;;21.36;40.52;99135.28;5132230;27;20437;-58
2024/04/01 07:37:55;;;;;;;36.67;8.07;;;;;;;21.63;40.03;99144.59;5132209;27;20487;-58
2024/04/01 07:40:21;;;;;;;40.22;8.55;;;;;;;21.74;39.99;99145.97;5132157;27;20410;-59
2024/04/01 07:42:50;;;;;;;44.50;8.18;;;;;;;21.79;39.97;99153.53;5132299;27;20047;-56
2024/04/01 07:45:17;;;;;;;44.25;9.45;;;;;;;21.82;40.46;99153.19;5132022;27;20046;-57
2024/04/01 07:47:44;;;;;;;43.17;8.20;;;;;;;22.00;39.99;99154.44;5131538;27;20189;-57
2024/04/01 07:50:10;;;;;;;40.65;8.20;;;;;;;22.19;40.25;99150.25;5131369;27;20151;-59
2024/04/01 07:52:37;;;;;;;43.08;8.65;;;;;;;22.27;40.71;99146.56;5131873;27;20039;-56
2024/04/01 07:55:06;;;;;;;43.60;8.93;;;;;;;22.32;39.72;99148.72;5130837;27;20054;-58
2024/04/01 07:57:33;;;;;;;45.53;8.40;;;;;;;22.37;38.84;99146.25;5131144;27;20050;-57
2024/04/01 08:00:01;;;;;;;48.53;9.35;;;;;;;22.47;39.58;99139.44;5131235;27;20476;-57
2024/04/01 08:02:28;;;;;;;51.15;9.60;;;;;;;22.41;39.22;99150.28;5131569;27;20058;-57
2024/04/01 08:04:54;;;;;;;48.92;9.85;;;;;;;22.45;38.63;99148.84;5131624;27;20047;-58
2024/04/01 08:07:22;;;;;;;49.60;10.20;;;;;;;22.57;38.54;99147.25;5131674;27;20100;-58
2024/04/01 08:09:48;;;;;;;49.97;10.02;;;;;;;22.60;38.75;99149.59;5131287;27;20524;-58
2024/04/01 08:12:15;;;;;;;62.50;10.77;;;;;;;22.65;38.47;99154.44;5131633;27;20055;-58
2024/04/01 08:14:42;;;;;;;50.28;10.10;;;;;;;22.64;38.39;99148.16;5131500;27;20083;-59
2024/04/01 08:17:10;;;;;;;56.65;10.18;;;;;;;22.75;38.68;99146.78;5131724;27;20453;-56
2024/04/01 08:19:36;;;;;;;52.10;9.48;;;;;;;22.97;37.97;99150.31;5131346;27;20050;-57
2024/04/01 08:22:04;;;;;;;45.80;9.93;;;;;;;22.98;38.21;99133.00;5131324;27;20047;-57
2024/04/01 08:24:30;;;;;;;65.25;10.13;;;;;;;23.04;37.76;99135.72;5131235;27;20442;-59
2024/04/01 08:26:57;;;;;;;53.72;10.05;;;;;;;23.14;37.88;99135.38;5131430;27;20047;-59
2024/04/01 08:29:24;;;;;;;63.67;9.95;;;;;;;23.10;37.62;99125.94;5131341;27;20047;-63
2024/04/01 08:31:51;;;;;;;52.80;9.73;;;;;;;23.05;38.13;99128.41;5131262;27;20177;-57
2024/04/01 08:34:18;;;;;;;60.53;11.00;;;;;;;23.24;37.52;99130.41;5130466;27;20126;-57
2024/04/01 08:36:45;;;;;;;60.15;10.27;;;;;;;23.22;37.74;99139.81;5131334;27;20621;-56
2024/04/01 08:39:12;;;;;;;59.55;10.85;;;;;;;22.98;37.97;99139.28;5131159;27;20054;-59
2024/04/01 08:41:43;;;;;;;57.78;10.13;;;;;;;23.00;38.48;99131.75;5131209;27;20043;-55
2024/04/01 08:44:12;;;;;;;47.65;9.27;;;;;;;23.01;38.29;99138.03;5130998;27;20051;-57
2024/04/01 08:46:42;;;;;;;54.17;9.52;;;;;;;23.07;38.31;99134.50;5131251;27;20054;-55
2024/04/01 08:49:10;;;;;;;51.67;9.30;;;;;;;23.06;38.73;99147.25;5131176;27;20074;-54
2024/04/01 08:51:40;;;;;;;55.83;9.93;;;;;;;23.14;38.84;99149.81;5130901;27;20548;-54
2024/04/01 08:54:08;;;;;;;63.30;11.20;;;;;;;23.16;38.49;99149.59;5130767;27;20506;-57
2024/04/01 08:56:39;;;;;;;59.90;10.05;;;;;;;23.39;38.14;99136.56;5130976;27;20084;-58
2024/04/01 08:59:07;;;;;;;52.15;9.57;;;;;;;23.60;37.69;99140.25;5130859;27;20694;-57
2024/04/01 09:01:34;;;;;;;50.70;10.60;;;;;;;23.64;37.56;99133.34;5130730;27;20051;-57
2024/04/01 09:04:01;;;;;;;59.45;10.68;;;;;;;23.91;36.97;99140.56;5130480;27;20053;-58
2024/04/01 09:06:29;;;;;;;60.08;11.63;;;;;;;24.07;36.29;99155.72;5130784;27;20066;-59
2024/04/01 09:08:57;;;;;;;60.65;10.77;;;;;;;24.10;35.75;99151.72;5130592;27;20393;-58
2024/04/01 09:11:25;;;;;;;57.17;10.55;;;;;;;24.20;36.28;99150.28;5130557;27;20308;-58
2024/04/01 09:13:52;;;;;;;58.42;10.07;;;;;;;24.15;36.04;99146.50;5130417;27;20039;-58
2024/04/01 09:16:23;;;;;;;74.20;11.43;;;;;;;24.39;35.72;99145.94;5130248;27;20468;-59
2024/04/01 09:18:49;;;;;;;53.92;10.80;;;;;;;24.60;35.11;99135.88;5130427;27;20123;-56
2024/04/01 09:21:19;;;;;;;76.95;12.63;;;;;;;24.60;35.01;99139.44;5130829;27;20137;-58
2024/04/01 09:23:46;;;;;;;64.10;12.15;;;;;;;24.46;35.75;99138.63;5130926;27;20100;-55
2024/04/01 09:26:15;;;;;;;59.45;11.05;;;;;;;24.61;35.98;99138.44;5130330;27;20376;-58
2024/04/01 09:28:42;;;;;;;61.95;10.73;;;;;;;24.71;35.39;99133.38;5130277;27;20039;-58
2024/04/01 09:31:10;;;;;;;60.95;10.95;;;;;;;24.76;35.96;99133.56;5130315;27;20131;-57
2024/04/01 09:33:36;;;;;;;63.00;11.45;;;;;;;24.82;35.51;99124.56;5130763;27;20140;-57
2024/04/01 09:36:04;;;;;;;52.63;10.45;;;;;;;25.06;35.30;99133.16;5130540;28;20106;-58
2024/04/01 09:38:33;;;;;;;61.47;10.27;;;;;;;25.26;35.66;99135.84;5130355;28;20050;-58
2024/04/01 09:41:01;;;;;;;52.08;10.57;;;;;;;25.27;35.07;99134.78;5130568;28;20055;-56
2024/04/01 09:43:30;;;;;;;66.53;12.38;;;;;;;25.27;34.91;99123.88;5130393;27;20065;-61
2024/04/01 09:45:58;;;;;;;63.10;10.93;;;;;;;25.27;34.79;99129.31;5133779;27;20052;-55
2024/04/01 09:48:26;;;;;;;58.35;11.60;;;;;;;25.37;34.60;99126.97;5134628;27;20051;-59
2024/04/01 09:50:54;;;;;;;65.95;12.02;;;;;;;25.33;34.31;99125.75;5134534;27;20054;-56
2024/04/01 09:53:21;;;;;;;64.40;11.93;;;;;;;25.28;33.94;99120.09;5134610;27;20059;-58
2024/04/01 09:56:12;;;;;;;55.60;12.13;;;;;;;25.44;34.26;99119.63;5135925;27;20051;-57
2024/04/01 09:59:17;;;;;;;70.95;11.90;;;;;;;25.51;34.28;99117.72;5114548;27;20487;-59
2024/04/01 10:02:09;;;;;;;62.72;12.02;;;;;;;25.59;34.47;99117.47;5134962;27;20046;-58
2024/04/01 10:05:00;;;;;;;75.22;12.20;;;;;;;25.81;33.54;99114.44;5134268;27;20047;-57
2024/04/01 10:08:04;;;;;;;65.60;11.73;;;;;;;25.75;33.01;99104.38;5134385;27;20126;-58
2024/04/01 10:10:53;;;;;;;58.78;11.75;;;;;;;25.66;32.92;99095.56;5134074;27;20400;-57
2024/04/01 10:14:11;;;;;;;60.63;11.80;;;;;;;25.84;33.32;99097.63;5118604;27;20043;-59
2024/04/01 10:17:04;;;;;;;75.72;13.25;;;;;;;25.94;33.61;99092.50;5133785;27;20411;-57
2024/04/01 10:20:25;;;;;;;60.13;12.30;;;;;;;25.78;32.67;99098.50;5132012;27;20043;-59
2024/04/01 10:23:34;;;;;;;57.13;12.55;;;;;;;25.83;32.94;99080.41;5029891;28;20045;-57
2024/04/01 10:26:40;;;;;;;64.90;12.57;;;;;;;25.91;32.64;99068.38;5034825;28;20410;-58
2024/04/01 10:29:49;;;;;;;68.50;12.57;;;;;;;25.76;32.95;99073.28;5084413;27;20047;-56
2024/04/01 10:33:10;;;;;;;79.63;13.35;;;;;;;25.92;32.38;99067.31;5133884;27;20051;-54
2024/04/01 10:36:10;;;;;;;63.30;12.18;;;;;;;25.94;32.58;99070.66;5133700;27;20441;-59
2024/04/01 10:39:25;;;;;;;70.45;12.80;;;;;;;25.93;33.03;99063.53;5133933;27;20384;-59
2024/04/01 10:42:30;;;;;;;61.40;11.93;;;;;;;25.91;32.88;99054.72;5106256;27;20105;-57
2024/04/01 10:45:33;;;;;;;62.72;11.10;;;;;;;25.86;33.31;99049.06;5133467;27;20507;-59
2024/04/01 10:48:16;;;;;;;60.67;12.68;;;;;;;25.88;33.69;99034.16;5133211;27;20139;-58
2024/04/01 10:51:46;;;;;;;64.47;12.55;;;;;;;25.87;33.47;99037.13;5133162;27;20081;-58
2024/04/01 10:54:16;;;;;;;65.72;12.45;;;;;;;26.04;32.65;99034.66;5091094;28;20134;-58
2024/04/01 10:57:37;;;;;;;63.55;12.55;;;;;;;26.06;33.20;99027.94;5073682;28;20358;-59
2024/04/01 11:00:33;;;;;;;65.57;12.93;;;;;;;26.16;32.16;99019.25;5108325;27;20040;-58
2024/04/01 11:03:41;;;;;;;76.78;12.95;;;;;;;26.27;32.10;99020.41;5133049;27;20415;-59
2024/04/01 11:06:29;;;;;;;68.50;13.52;;;;;;;26.37;32.57;99013.41;5133231;27;20457;-57
2024/04/01 11:09:21;;;;;;;73.45;15.02;;;;;;;26.49;32.37;99013.50;5132801;27;20191;-56
2024/04/01 11:12:02;;;;;;;72.97;14.20;;;;;;;26.40;32.55;99004.75;5132555;27;20039;-57
2024/04/01 11:14:30;;;;;;;68.82;14.07;;;;;;;26.34;32.44;98999.31;5132825;27;20070;-59
2024/04/01 11:17:01;;;;;;;65.43;12.50;;;;;;;26.30;31.95;98998.09;5132705;27;20073;-59
2024/04/01 11:19:52;;;;;;;67.00;13.80;;;;;;;26.22;31.59;98994.56;5132757;27;20047;-58
2024/04/01 11:22:32;;;;;;;70.15;12.73;;;;;;;26.16;32.06;98992.75;5132735;27;20438;-58
2024/04/01 11:25:10;;;;;;;74.75;13.55;;;;;;;26.25;32.22;98985.09;5132791;27;20079;-58
2024/04/01 11:27:58;;;;;;;67.63;13.55;;;;;;;26.47;31.82;98977.34;5132617;27;20153;-60
2024/04/01 11:30:34;;;;;;;67.15;13.77;;;;;;;26.40;32.58;98976.56;5132375;27;20130;-58
2024/04/01 11:33:05;;;;;;;65.70;12.90;;;;;;;26.37;32.56;98960.59;5132571;27;20047;-53
2024/04/01 11:35:43;;;;;;;67.35;13.38;;;;;;;26.32;32.73;98957.69;5132583;27;20047;-61
2024/04/01 11:38:20;;;;;;;70.88;13.65;;;;;;;26.36;31.65;98946.09;5132679;27;20039;-57